createdAt,value
2022-10-05T00:02:20.137Z,4.20
2022-10-05T00:04:49.110Z,3.67
2022-10-05T00:07:20.586Z,3.65
2022-10-05T00:09:54.592Z,4.38
2022-10-05T00:12:23.966Z,4.50
2022-10-05T00:14:53.529Z,4.00
2022-10-05T00:17:22.688Z,3.95
2022-10-05T00:19:52.430Z,3.70
2022-10-05T00:22:22.911Z,4.10
2022-10-05T00:24:52.174Z,3.70
2022-10-05T00:27:21.416Z,3.80
2022-10-05T00:29:50.787Z,3.75
2022-10-05T00:32:19.352Z,3.38
2022-10-05T00:34:47.768Z,3.95
2022-10-05T00:37:16.326Z,3.53
2022-10-05T00:39:46.175Z,3.70
2022-10-05T00:42:20.569Z,4.13
2022-10-05T00:44:51.377Z,10.20
2022-10-05T00:47:29.331Z,7.40
2022-10-05T00:50:05.741Z,5.57
2022-10-05T00:52:38.117Z,7.88
2022-10-05T00:55:12.611Z,6.45
2022-10-05T00:57:46.259Z,6.40
2022-10-05T01:00:17.800Z,4.88
2022-10-05T01:02:52.993Z,4.80
2022-10-05T01:05:26.762Z,5.03
2022-10-05T01:08:00.861Z,4.32
2022-10-05T01:10:34.549Z,5.22
2022-10-05T01:13:06.675Z,5.75
2022-10-05T01:15:38.559Z,5.63
2022-10-05T01:18:09.298Z,4.53
2022-10-05T01:20:41.171Z,4.30
2022-10-05T01:23:18.401Z,4.50
2022-10-05T01:25:51.961Z,4.30
2022-10-05T01:28:25.988Z,4.20
2022-10-05T01:30:56.731Z,4.43
2022-10-05T01:33:28.645Z,4.70
2022-10-05T01:36:00.929Z,4.38
2022-10-05T01:38:39.524Z,4.72
2022-10-05T01:41:14.471Z,4.03
2022-10-05T01:43:46.064Z,4.95
2022-10-05T01:46:18.487Z,4.70
2022-10-05T01:48:52.674Z,4.35
2022-10-05T01:51:24.500Z,4.07
2022-10-05T01:53:59.275Z,3.70
2022-10-05T01:56:32.293Z,3.70
2022-10-05T01:59:11.327Z,3.95
2022-10-05T02:01:44.439Z,3.53
2022-10-05T02:04:31.004Z,3.80
2022-10-05T02:07:10.165Z,4.00
2022-10-05T02:09:41.430Z,3.95
2022-10-05T02:12:14.735Z,3.88
2022-10-05T02:14:45.688Z,4.20
2022-10-05T02:17:15.484Z,3.63
2022-10-05T02:19:45.038Z,4.38
2022-10-05T02:22:16.827Z,3.97
2022-10-05T02:24:48.588Z,3.97
2022-10-05T02:27:19.412Z,3.70
2022-10-05T02:29:50.789Z,4.03
2022-10-05T02:32:21.931Z,3.60
2022-10-05T02:34:50.355Z,4.07
2022-10-05T02:37:22.908Z,4.10
2022-10-05T02:39:58.386Z,3.90
2022-10-05T02:42:28.862Z,3.80
2022-10-05T02:45:03.307Z,3.42
2022-10-05T02:47:35.102Z,3.70
2022-10-05T02:50:07.958Z,3.85
2022-10-05T02:52:40.123Z,4.00
2022-10-05T02:55:13.680Z,4.03
2022-10-05T02:57:46.417Z,4.53
2022-10-05T03:00:17.786Z,4.10
2022-10-05T03:02:50.282Z,4.20
2022-10-05T03:05:21.201Z,4.22
2022-10-05T03:07:52.369Z,3.95
2022-10-05T03:10:27.222Z,4.38
2022-10-05T03:12:57.455Z,4.80
2022-10-05T03:15:37.479Z,4.40
2022-10-05T03:18:10.899Z,4.32
2022-10-05T03:20:43.545Z,4.75
2022-10-05T03:23:16.995Z,3.97
2022-10-05T03:25:52.695Z,3.72
2022-10-05T03:28:23.489Z,4.03
2022-10-05T03:30:57.552Z,4.07
2022-10-05T03:33:32.598Z,4.70
2022-10-05T03:36:06.212Z,4.05
2022-10-05T03:38:38.858Z,5.28
2022-10-05T03:41:12.009Z,4.93
2022-10-05T03:44:07.599Z,4.93
2022-10-05T03:46:43.866Z,5.55
2022-10-05T03:49:15.456Z,4.82
2022-10-05T03:51:45.237Z,4.93
2022-10-05T03:54:17.275Z,4.40
2022-10-05T03:56:48.295Z,4.80
2022-10-05T03:59:18.934Z,5.05
2022-10-05T04:01:51.530Z,4.35
2022-10-05T04:04:22.132Z,4.40
2022-10-05T04:06:51.662Z,4.65
2022-10-05T04:09:23.004Z,4.15
2022-10-05T04:11:53.849Z,5.38
2022-10-05T04:14:23.969Z,4.53
2022-10-05T04:16:56.838Z,4.40
2022-10-05T04:19:27.649Z,4.03
2022-10-05T04:21:59.071Z,4.13
2022-10-05T04:24:32.086Z,4.30
2022-10-05T04:27:01.967Z,4.10
2022-10-05T04:29:34.428Z,3.58
2022-10-05T04:32:10.844Z,4.20
2022-10-05T04:34:48.996Z,3.72
2022-10-05T04:37:21.013Z,4.22
2022-10-05T04:39:53.439Z,4.32
2022-10-05T04:42:27.490Z,4.25
2022-10-05T04:45:04.074Z,4.07
2022-10-05T04:47:56.521Z,4.43
2022-10-05T04:50:32.181Z,5.30
2022-10-05T04:53:04.049Z,4.68
2022-10-05T04:55:33.678Z,4.72
2022-10-05T04:58:05.134Z,4.22
2022-10-05T05:00:37.167Z,4.30
2022-10-05T05:03:20.527Z,3.90
2022-10-05T05:06:15.962Z,4.03
2022-10-05T05:08:50.991Z,4.00
2022-10-05T05:11:26.978Z,4.68
2022-10-05T05:14:08.938Z,4.97
2022-10-05T05:16:38.928Z,5.53
2022-10-05T05:19:20.016Z,4.90
2022-10-05T05:21:53.895Z,4.57
2022-10-05T05:26:56.635Z,5.10
2022-10-05T05:29:35.851Z,5.18
2022-10-05T05:32:08.940Z,5.35
2022-10-05T05:34:42.782Z,5.15
2022-10-05T05:37:18.680Z,5.80
2022-10-05T05:39:51.491Z,4.97
2022-10-05T05:42:23.053Z,5.05
2022-10-05T05:44:52.737Z,5.35
2022-10-05T05:47:22.425Z,4.75
2022-10-05T05:49:56.643Z,5.22
2022-10-05T05:52:28.037Z,5.15
2022-10-05T05:54:58.853Z,5.43
2022-10-05T05:57:30.714Z,5.40
2022-10-05T06:00:05.653Z,6.18
2022-10-05T06:02:39.864Z,5.65
2022-10-05T06:05:12.830Z,6.43
2022-10-05T06:07:42.714Z,7.00
2022-10-05T06:10:16.298Z,6.88
2022-10-05T06:12:46.872Z,7.82
2022-10-05T06:15:31.195Z,8.35
2022-10-05T06:18:00.981Z,7.63
2022-10-05T06:20:30.905Z,9.30
2022-10-05T06:23:03.524Z,9.75
2022-10-05T06:25:37.177Z,10.95
2022-10-05T06:28:10.626Z,8.75
2022-10-05T06:30:46.927Z,7.53
2022-10-05T06:33:20.548Z,6.22
2022-10-05T06:35:54.542Z,5.88
2022-10-05T06:38:32.721Z,5.03
2022-10-05T06:41:07.157Z,4.97
2022-10-05T06:43:42.392Z,5.22
2022-10-05T06:46:13.681Z,5.80
2022-10-05T06:48:48.723Z,5.65
2022-10-05T06:51:23.382Z,13.50
2022-10-05T06:54:00.948Z,11.63
2022-10-05T06:56:33.041Z,9.82
2022-10-05T06:59:05.226Z,14.48
2022-10-05T07:01:39.209Z,15.18
2022-10-05T07:04:17.735Z,9.75
2022-10-05T07:06:51.681Z,7.72
2022-10-05T07:09:27.663Z,12.13
2022-10-05T07:12:05.667Z,14.13
2022-10-05T07:14:43.250Z,11.13
2022-10-05T07:17:29.818Z,9.95
2022-10-05T07:20:01.460Z,9.13
2022-10-05T07:22:47.704Z,9.60
2022-10-05T07:25:19.333Z,9.45
2022-10-05T07:27:52.209Z,8.70
2022-10-05T07:30:20.855Z,9.93
2022-10-05T07:32:55.423Z,10.85
2022-10-05T07:35:44.663Z,9.95
2022-10-05T07:38:14.737Z,9.43
2022-10-05T07:40:48.938Z,9.27
2022-10-05T07:43:23.379Z,9.27
2022-10-05T07:45:54.819Z,7.78
2022-10-05T07:48:24.482Z,7.95
2022-10-05T07:51:01.098Z,8.38
2022-10-05T07:53:31.824Z,9.07
2022-10-05T07:56:04.701Z,8.65
2022-10-05T07:58:34.255Z,8.50
2022-10-05T08:01:06.835Z,9.18
2022-10-05T08:03:41.520Z,9.57
2022-10-05T08:06:13.002Z,9.48
2022-10-05T08:08:46.990Z,12.38
2022-10-05T08:11:18.748Z,11.18
2022-10-05T08:13:49.528Z,10.07
2022-10-05T08:16:18.303Z,9.55
2022-10-05T08:18:52.277Z,10.02
2022-10-05T08:21:23.227Z,11.02
2022-10-05T08:23:54.211Z,9.15
2022-10-05T08:26:27.984Z,8.43
2022-10-05T08:29:02.199Z,8.13
2022-10-05T08:31:33.565Z,8.52
2022-10-05T08:34:07.267Z,8.10
2022-10-05T08:36:45.324Z,6.95
2022-10-05T08:39:17.033Z,7.45
2022-10-05T08:42:00.301Z,7.70
2022-10-05T08:44:52.590Z,7.80
2022-10-05T08:47:30.655Z,8.07
2022-10-05T08:50:08.925Z,7.20
2022-10-05T08:52:42.430Z,8.00
2022-10-05T08:55:29.442Z,7.10
2022-10-05T08:58:27.925Z,8.93
2022-10-05T09:01:00.160Z,7.45
2022-10-05T09:03:46.319Z,6.47
2022-10-05T09:06:23.841Z,7.15
2022-10-05T09:09:13.154Z,7.97
2022-10-05T09:11:46.159Z,7.03
2022-10-05T09:14:21.071Z,6.63
2022-10-05T09:17:13.929Z,6.00
2022-10-05T09:19:57.157Z,6.47
2022-10-05T09:22:36.667Z,6.47
2022-10-05T09:25:13.341Z,5.65
2022-10-05T09:27:45.837Z,5.70
2022-10-05T09:30:21.802Z,4.82
2022-10-05T09:33:00.110Z,6.25
2022-10-05T09:35:42.288Z,5.93
2022-10-05T09:38:30.361Z,4.85
2022-10-05T09:41:14.494Z,7.78
2022-10-05T09:46:38.461Z,6.13
2022-10-05T09:49:26.333Z,5.88
2022-10-05T09:52:15.152Z,6.15
2022-10-05T09:55:06.846Z,6.85
2022-10-05T09:57:43.926Z,7.15
2022-10-05T10:00:22.315Z,7.30
2022-10-05T10:03:09.625Z,5.88
2022-10-05T10:05:51.732Z,5.40
2022-10-05T10:08:26.804Z,5.38
2022-10-05T10:11:02.861Z,5.20
2022-10-05T10:13:52.166Z,4.68
2022-10-05T10:16:38.215Z,4.15
2022-10-05T10:19:21.671Z,5.22
2022-10-05T10:22:08.689Z,4.85
2022-10-05T10:24:44.627Z,4.18
2022-10-05T10:27:21.792Z,4.10
2022-10-05T10:30:01.072Z,4.65
2022-10-05T10:32:48.131Z,4.47
2022-10-05T10:35:22.337Z,4.43
2022-10-05T10:38:24.716Z,5.03
2022-10-05T10:41:05.025Z,3.78
2022-10-05T10:43:43.908Z,3.95
2022-10-05T10:46:20.904Z,4.03
2022-10-05T10:48:57.735Z,3.60
2022-10-05T10:51:51.722Z,3.80
2022-10-05T10:54:33.386Z,3.17
2022-10-05T10:57:08.927Z,3.05
2022-10-05T10:59:52.707Z,2.95
2022-10-05T11:02:27.227Z,3.15
2022-10-05T11:05:13.817Z,2.53
2022-10-05T11:07:59.857Z,2.25
2022-10-05T11:10:32.968Z,3.15
2022-10-05T11:13:19.028Z,3.15
2022-10-05T11:15:58.285Z,3.67
2022-10-05T11:18:31.418Z,3.70
2022-10-05T11:21:18.752Z,3.47
2022-10-05T11:23:56.968Z,3.00
2022-10-05T11:26:43.198Z,3.83
2022-10-05T11:29:23.726Z,3.03
2022-10-05T11:32:09.692Z,4.85
2022-10-05T11:34:53.216Z,4.15
2022-10-05T11:37:40.089Z,3.72
2022-10-05T11:40:37.742Z,3.42
2022-10-05T11:43:15.356Z,3.78
2022-10-05T11:45:57.445Z,2.25
2022-10-05T11:48:35.689Z,2.97
2022-10-05T11:51:26.462Z,3.97
2022-10-05T11:54:03.724Z,2.97
2022-10-05T11:56:37.375Z,2.20
2022-10-05T12:01:42.427Z,2.75
2022-10-05T12:04:18.136Z,2.85
2022-10-05T12:06:57.021Z,2.60
2022-10-05T12:09:31.614Z,2.85
2022-10-05T12:12:06.023Z,2.20
2022-10-05T12:14:43.836Z,2.38
2022-10-05T12:17:19.557Z,2.20
2022-10-05T12:19:55.722Z,2.20
2022-10-05T12:22:26.755Z,2.28
2022-10-05T12:25:15.864Z,2.15
2022-10-05T12:27:46.536Z,1.75
2022-10-05T12:30:20.961Z,2.17
2022-10-05T12:33:01.857Z,2.17
2022-10-05T12:35:50.440Z,1.85
2022-10-05T12:38:23.105Z,2.10
2022-10-05T12:40:54.473Z,2.20
2022-10-05T12:43:27.430Z,2.10
2022-10-05T12:46:01.592Z,2.35
2022-10-05T12:48:43.360Z,2.13
2022-10-05T12:51:19.104Z,2.05
2022-10-05T12:53:51.202Z,2.30
2022-10-05T12:56:24.200Z,1.70
2022-10-05T12:58:55.924Z,2.35
2022-10-05T13:01:28.337Z,2.22
2022-10-05T13:04:03.357Z,2.33
2022-10-05T13:06:38.123Z,2.42
2022-10-05T13:09:10.229Z,2.10
2022-10-05T13:11:41.069Z,2.78
2022-10-05T13:14:16.503Z,2.30
2022-10-05T13:16:54.791Z,2.10
2022-10-05T13:19:32.633Z,2.08
2022-10-05T13:22:06.372Z,2.50
2022-10-05T13:24:40.084Z,2.40
2022-10-05T13:27:13.795Z,2.45
2022-10-05T13:29:44.094Z,2.35
2022-10-05T13:32:15.618Z,2.13
2022-10-05T13:34:48.549Z,2.33
2022-10-05T13:37:21.002Z,2.72
2022-10-05T13:40:06.231Z,2.35
2022-10-05T13:42:40.209Z,2.20
2022-10-05T13:45:15.034Z,2.15
2022-10-05T13:47:49.919Z,2.25
2022-10-05T13:50:22.343Z,1.98
2022-10-05T13:52:53.845Z,1.90
2022-10-05T13:55:34.350Z,2.50
2022-10-05T13:58:05.955Z,2.10
2022-10-05T14:00:38.643Z,2.70
2022-10-05T14:03:24.916Z,2.33
2022-10-05T14:05:58.945Z,2.33
2022-10-05T14:08:28.881Z,2.17
2022-10-05T14:10:58.291Z,2.58
2022-10-05T14:13:27.756Z,2.53
2022-10-05T14:16:04.427Z,2.63
2022-10-05T14:18:34.534Z,2.25
2022-10-05T14:21:05.715Z,2.17
2022-10-05T14:23:34.102Z,2.20
2022-10-05T14:26:04.458Z,2.42
2022-10-05T14:28:33.992Z,2.50
2022-10-05T14:31:03.434Z,2.55
2022-10-05T14:33:35.091Z,3.83
2022-10-05T14:36:05.179Z,2.60
2022-10-05T14:38:36.077Z,2.60
2022-10-05T14:41:05.459Z,2.42
2022-10-05T14:43:34.537Z,2.35
2022-10-05T14:46:05.582Z,2.10
2022-10-05T14:48:40.139Z,2.33
2022-10-05T14:51:13.279Z,2.47
2022-10-05T14:53:43.330Z,2.38
2022-10-05T14:56:23.140Z,2.78
2022-10-05T14:59:04.144Z,2.70
2022-10-05T15:01:35.233Z,2.30
2022-10-05T15:04:09.942Z,2.38
2022-10-05T15:06:41.305Z,2.20
2022-10-05T15:09:18.530Z,2.22
2022-10-05T15:11:50.712Z,4.22
2022-10-05T15:14:21.317Z,3.17
2022-10-05T15:16:52.929Z,2.35
2022-10-05T15:19:25.015Z,2.50
2022-10-05T15:22:00.221Z,2.22
2022-10-05T15:24:30.709Z,2.22
2022-10-05T15:27:00.180Z,1.73
2022-10-05T15:29:36.174Z,2.13
2022-10-05T15:32:11.112Z,1.92
2022-10-05T15:34:42.862Z,2.03
2022-10-05T15:37:16.970Z,2.28
2022-10-05T15:39:49.530Z,2.28
2022-10-05T15:42:19.052Z,2.00
2022-10-05T15:44:55.940Z,2.15
2022-10-05T15:47:25.091Z,2.13
2022-10-05T15:50:01.276Z,1.88
2022-10-05T15:52:37.695Z,2.20
2022-10-05T15:55:23.965Z,2.00
2022-10-05T15:57:55.450Z,2.58
2022-10-05T16:00:24.350Z,5.18
2022-10-05T16:02:55.384Z,3.10
2022-10-05T16:05:54.164Z,2.53
2022-10-05T16:08:48.713Z,2.45
2022-10-05T16:11:20.594Z,3.40
2022-10-05T16:13:52.035Z,3.30
2022-10-05T16:16:23.089Z,3.20
2022-10-05T16:19:01.777Z,3.65
2022-10-05T16:21:34.090Z,3.75
2022-10-05T16:24:06.594Z,2.88
2022-10-05T16:26:39.609Z,3.05
2022-10-05T16:29:13.028Z,2.25
2022-10-05T16:31:47.152Z,2.92
2022-10-05T16:34:20.470Z,2.72
2022-10-05T16:36:53.457Z,2.53
2022-10-05T16:39:26.819Z,2.28
2022-10-05T16:41:58.061Z,2.90
2022-10-05T16:44:31.867Z,2.22
2022-10-05T16:47:03.465Z,1.90
2022-10-05T16:49:39.633Z,2.20
2022-10-05T16:52:12.229Z,2.10
2022-10-05T16:54:47.656Z,2.15
2022-10-05T16:57:20.962Z,2.33
2022-10-05T17:00:15.042Z,2.10
2022-10-05T17:02:54.920Z,2.05
2022-10-05T17:05:29.846Z,2.47
2022-10-05T17:08:03.180Z,3.70
2022-10-05T17:10:43.867Z,2.83
2022-10-05T17:13:18.367Z,2.35
2022-10-05T17:15:55.055Z,2.63
2022-10-05T17:18:29.901Z,4.63
2022-10-05T17:21:05.522Z,4.60
2022-10-05T17:23:36.971Z,3.97
2022-10-05T17:26:13.269Z,3.30
2022-10-05T17:28:44.361Z,3.50
2022-10-05T17:31:17.910Z,3.42
2022-10-05T17:34:04.872Z,3.60
2022-10-05T17:36:44.181Z,4.43
2022-10-05T17:39:15.174Z,3.75
2022-10-05T17:41:44.944Z,7.55
2022-10-05T17:44:34.300Z,8.00
2022-10-05T17:47:04.957Z,7.53
2022-10-05T17:50:07.913Z,7.88
2022-10-05T17:52:56.754Z,7.53
2022-10-05T17:55:47.924Z,7.25
2022-10-05T17:58:37.416Z,7.13
2022-10-05T18:01:17.097Z,6.25
2022-10-05T18:03:46.254Z,7.13
2022-10-05T18:06:31.836Z,7.05
2022-10-05T18:09:21.813Z,6.22
2022-10-05T18:12:06.145Z,6.25
2022-10-05T18:14:49.360Z,5.75
2022-10-05T18:17:36.661Z,7.55
2022-10-05T18:20:14.831Z,7.30
2022-10-05T18:22:44.077Z,7.30
2022-10-05T18:25:21.567Z,7.00
2022-10-05T18:28:00.874Z,7.55
2022-10-05T18:30:32.150Z,7.25
2022-10-05T18:33:15.362Z,7.50
2022-10-05T18:35:51.686Z,6.75
2022-10-05T18:38:28.660Z,7.28
2022-10-05T18:41:00.374Z,7.32
2022-10-05T18:43:32.493Z,6.85
2022-10-05T18:46:14.148Z,5.43
2022-10-05T18:48:49.556Z,5.95
2022-10-05T18:51:23.372Z,5.32
2022-10-05T18:53:58.590Z,5.47
2022-10-05T18:56:31.262Z,5.70
2022-10-05T18:59:05.974Z,6.05
2022-10-05T19:01:47.330Z,5.90
2022-10-05T19:04:22.300Z,5.93
2022-10-05T19:06:55.050Z,6.60
2022-10-05T19:09:32.363Z,9.07
2022-10-05T19:12:03.108Z,8.13
2022-10-05T19:14:37.664Z,7.85
2022-10-05T19:17:13.130Z,7.40
2022-10-05T19:19:45.770Z,6.35
2022-10-05T19:22:20.469Z,6.60
2022-10-05T19:24:52.644Z,5.97
2022-10-05T19:27:24.587Z,5.45
2022-10-05T19:30:15.184Z,4.43
2022-10-05T19:32:48.367Z,4.82
2022-10-05T19:35:24.968Z,4.85
2022-10-05T19:37:58.689Z,4.30
2022-10-05T19:43:03.199Z,7.80
2022-10-05T19:45:33.436Z,7.18
2022-10-05T19:48:07.454Z,6.53
2022-10-05T19:50:37.827Z,5.63
2022-10-05T19:53:13.587Z,5.18
2022-10-05T19:55:43.755Z,5.22
2022-10-05T19:58:19.644Z,4.63
2022-10-05T20:00:54.549Z,4.97
2022-10-05T20:03:26.530Z,6.18
2022-10-05T20:05:56.479Z,6.40
2022-10-05T20:08:27.699Z,7.72
2022-10-05T20:11:06.776Z,8.43
2022-10-05T20:13:35.879Z,8.75
2022-10-05T20:16:38.296Z,8.30
2022-10-05T20:19:33.296Z,8.07
2022-10-05T20:22:21.878Z,7.85
2022-10-05T20:24:55.433Z,7.80
2022-10-05T20:27:37.214Z,7.40
2022-10-05T20:30:05.986Z,7.07
2022-10-05T20:32:34.373Z,8.00
2022-10-05T20:35:02.705Z,7.22
2022-10-05T20:37:31.059Z,7.13
2022-10-05T20:40:00.783Z,6.50
2022-10-05T20:42:29.831Z,7.55
2022-10-05T20:44:58.813Z,7.13
2022-10-05T20:47:27.570Z,7.40
2022-10-05T20:49:55.858Z,7.05
2022-10-05T20:52:25.111Z,7.95
2022-10-05T20:54:58.192Z,6.78
2022-10-05T20:57:28.098Z,7.80
2022-10-05T20:59:56.462Z,6.95
2022-10-05T21:02:24.848Z,7.22
2022-10-05T21:04:53.326Z,7.00
2022-10-05T21:07:23.360Z,7.03
2022-10-05T21:09:52.050Z,7.60
2022-10-05T21:12:20.403Z,7.97
2022-10-05T21:14:52.632Z,8.07
2022-10-05T21:17:21.225Z,16.63
2022-10-05T21:19:49.582Z,16.33
2022-10-05T21:22:18.239Z,17.10
2022-10-05T21:24:46.748Z,14.95
2022-10-05T21:27:15.108Z,13.95
2022-10-05T21:29:44.232Z,12.20
2022-10-05T21:32:13.952Z,13.52
2022-10-05T21:34:42.781Z,14.70
2022-10-05T21:37:11.177Z,13.30
2022-10-05T21:39:39.502Z,12.80
2022-10-05T21:42:07.866Z,12.45
2022-10-05T21:44:36.184Z,14.10
2022-10-05T21:47:06.924Z,15.95
2022-10-05T21:49:37.539Z,18.42
2022-10-05T21:52:06.807Z,17.85
2022-10-05T21:54:35.868Z,15.18
2022-10-05T21:57:04.568Z,10.80
2022-10-05T21:59:34.712Z,12.05
2022-10-05T22:02:03.538Z,7.85
2022-10-05T22:04:31.883Z,5.82
2022-10-05T22:07:01.702Z,4.95
2022-10-05T22:09:30.100Z,5.40
2022-10-05T22:11:58.497Z,5.40
2022-10-05T22:14:28.351Z,5.13
2022-10-05T22:16:56.719Z,5.38
2022-10-05T22:19:25.077Z,4.88
2022-10-05T22:21:53.429Z,5.47
2022-10-05T22:24:23.102Z,5.20
2022-10-05T22:26:52.882Z,5.43
2022-10-05T22:29:22.117Z,4.90
2022-10-05T22:31:50.508Z,5.15
2022-10-05T22:34:19.195Z,5.13
2022-10-05T22:36:47.615Z,5.25
2022-10-05T22:39:16.359Z,4.47
2022-10-05T22:41:46.477Z,4.93
2022-10-05T22:44:14.798Z,5.35
2022-10-05T22:46:43.150Z,5.55
2022-10-05T22:49:11.498Z,5.50
2022-10-05T22:51:39.833Z,5.43
2022-10-05T22:54:08.204Z,5.50
2022-10-05T22:56:36.570Z,5.65
2022-10-05T22:59:06.270Z,5.78
2022-10-05T23:01:34.726Z,7.70
2022-10-05T23:04:04.452Z,7.50
2022-10-05T23:06:33.149Z,40.33
2022-10-05T23:09:01.510Z,38.03
2022-10-05T23:11:31.434Z,12.00
2022-10-05T23:14:00.369Z,7.82
2022-10-05T23:16:30.326Z,6.18
2022-10-05T23:18:59.160Z,5.65
2022-10-05T23:21:29.886Z,5.47
2022-10-05T23:23:58.207Z,8.30
2022-10-05T23:26:26.960Z,7.32
2022-10-05T23:28:55.564Z,5.63
2022-10-05T23:31:24.646Z,4.90
2022-10-05T23:33:54.788Z,5.18
2022-10-05T23:36:23.860Z,5.07
2022-10-05T23:38:52.618Z,5.30
2022-10-05T23:41:21.315Z,4.43
2022-10-05T23:43:49.886Z,4.85
2022-10-05T23:46:18.677Z,4.00
2022-10-05T23:48:47.057Z,4.32
2022-10-05T23:51:17.309Z,4.72
2022-10-05T23:53:45.623Z,4.60
2022-10-05T23:56:14.083Z,4.38
2022-10-05T23:58:42.439Z,4.45
